Time;durP1;ratioP1;P1;durP2;ratioP2;P2;SDS_P1;SDS_P2;PMS_P1;PMS_P2;Temp;Humidity;BMP_temperature;BMP_pressure;BME280_temperature;BME280_humidity;BME280_pressure;Samples;Min_cycle;Max_cycle;Signal;HPM_P1;HPM_P2
2022/03/18 00:01:21;;;;;;;14.40;4.72;;;5.50;99.90;;;;;;4991570;28;20545;-73
2022/03/18 00:03:46;;;;;;;14.80;5.85;;;5.60;99.90;;;;;;5009530;28;20137;-73
2022/03/18 00:06:16;;;;;;;15.45;5.00;;;5.50;99.90;;;;;;5009814;28;20056;-73
2022/03/18 00:08:42;;;;;;;16.77;5.22;;;5.50;99.90;;;;;;5008852;28;20117;-72
2022/03/18 00:11:08;;;;;;;18.55;5.45;;;5.40;99.90;;;;;;5011171;28;20149;-73
2022/03/18 00:13:33;;;;;;;15.10;5.70;;;5.40;99.90;;;;;;5009882;28;20367;-73
2022/03/18 00:16:00;;;;;;;17.80;6.28;;;5.40;99.90;;;;;;5010408;28;20061;-72
2022/03/18 00:18:26;;;;;;;11.13;4.97;;;5.40;99.90;;;;;;5004990;28;20046;-72
2022/03/18 00:20:51;;;;;;;17.13;5.80;;;5.50;99.90;;;;;;5009669;28;20046;-72
2022/03/18 00:23:20;;;;;;;15.88;5.95;;;5.40;99.90;;;;;;5009561;28;20068;-72
2022/03/18 00:25:46;;;;;;;13.82;6.15;;;5.40;99.90;;;;;;4996084;28;20038;-72
2022/03/18 00:28:12;;;;;;;18.92;6.30;;;5.30;99.90;;;;;;5010053;28;20037;-73
2022/03/18 00:30:38;;;;;;;14.02;6.00;;;5.30;99.90;;;;;;5009950;28;20506;-73
2022/03/18 00:33:05;;;;;;;17.55;6.53;;;5.30;99.90;;;;;;5008877;28;20064;-73
2022/03/18 00:35:31;;;;;;;16.75;6.45;;;5.30;99.90;;;;;;5009839;28;20049;-73
2022/03/18 00:37:56;;;;;;;15.20;6.07;;;5.30;99.90;;;;;;4994344;28;20068;-73
2022/03/18 00:40:22;;;;;;;16.88;7.20;;;5.20;99.90;;;;;;5010410;28;20470;-73
2022/03/18 00:42:48;;;;;;;20.75;6.53;;;5.20;99.90;;;;;;5008584;28;20492;-73
2022/03/18 00:45:14;;;;;;;15.27;5.93;;;5.20;99.90;;;;;;5003030;28;20045;-72
2022/03/18 00:52:03;;;;;;;17.35;6.50;;;5.10;99.90;;;;;;5008657;28;20046;-73
2022/03/18 00:53:27;;;;;;;19.98;6.40;;;5.10;99.90;;;;;;5009294;28;20095;-73
2022/03/18 00:55:53;;;;;;;13.93;6.65;;;5.10;99.90;;;;;;5007314;28;20463;-72
2022/03/18 00:58:18;;;;;;;18.13;7.63;;;5.10;99.90;;;;;;5009467;28;20054;-73
2022/03/18 01:00:44;;;;;;;19.98;7.18;;;5.00;99.90;;;;;;5009375;28;20467;-73
2022/03/18 01:03:09;;;;;;;17.63;6.35;;;5.00;99.90;;;;;;5007487;28;20387;-73
2022/03/18 01:05:35;;;;;;;14.18;6.50;;;5.10;99.90;;;;;;5010543;28;20050;-73
2022/03/18 01:08:01;;;;;;;17.52;7.60;;;5.00;99.90;;;;;;5010152;28;20052;-73
2022/03/18 01:10:26;;;;;;;16.45;7.28;;;5.00;99.90;;;;;;5009280;28;20111;-72
2022/03/18 01:12:52;;;;;;;16.40;6.82;;;5.00;99.90;;;;;;5008828;28;20363;-73
2022/03/18 01:15:18;;;;;;;17.00;6.63;;;5.00;99.90;;;;;;5007930;28;20085;-73
2022/03/18 01:17:43;;;;;;;19.65;6.57;;;6.30;99.90;;;;;;5008408;28;20049;-73
2022/03/18 01:20:09;;;;;;;16.13;6.82;;;4.90;99.90;;;;;;4990429;28;20041;-72
2022/03/18 01:22:36;;;;;;;22.42;7.30;;;4.90;99.90;;;;;;5007953;28;20054;-72
2022/03/18 01:25:02;;;;;;;16.00;7.40;;;5.00;99.90;;;;;;5008329;28;20131;-72
2022/03/18 01:27:27;;;;;;;16.50;7.15;;;5.00;99.90;;;;;;5009135;28;20105;-72
2022/03/18 01:29:53;;;;;;;19.30;7.40;;;5.90;99.90;;;;;;4997637;28;20042;-74
2022/03/18 01:32:19;;;;;;;20.02;7.32;;;5.00;99.90;;;;;;5007633;28;20053;-72
2022/03/18 01:34:44;;;;;;;17.13;6.85;;;4.90;99.90;;;;;;5006736;28;20049;-72
2022/03/18 01:37:10;;;;;;;21.38;7.60;;;5.00;99.90;;;;;;5008719;28;20046;-73
2022/03/18 01:39:35;;;;;;;20.75;7.50;;;6.40;99.90;;;;;;5008325;28;20371;-72
2022/03/18 01:42:01;;;;;;;19.35;7.30;;;5.00;99.90;;;;;;5009281;28;20140;-73
2022/03/18 01:44:27;;;;;;;19.77;8.10;;;5.00;99.90;;;;;;5008826;28;20042;-72
2022/03/18 01:46:52;;;;;;;20.88;8.00;;;4.90;99.90;;;;;;5007759;28;20045;-72
2022/03/18 01:49:18;;;;;;;21.27;7.30;;;4.90;99.90;;;;;;5006555;28;20103;-73
2022/03/18 01:51:44;;;;;;;17.98;7.15;;;4.90;99.90;;;;;;5009059;28;20092;-72
2022/03/18 01:56:55;;;;;;;15.05;7.32;;;5.00;99.90;;;;;;5007223;28;20050;-72
2022/03/18 01:59:20;;;;;;;17.52;7.47;;;4.90;99.90;;;;;;5010456;28;20456;-72
2022/03/18 02:01:46;;;;;;;18.15;7.75;;;4.90;99.90;;;;;;5008268;28;20042;-72
2022/03/18 02:04:12;;;;;;;17.02;7.90;;;4.90;99.90;;;;;;5008900;28;20113;-72
2022/03/18 02:06:38;;;;;;;17.58;7.25;;;4.90;99.90;;;;;;5009739;28;20125;-72
2022/03/18 02:09:05;;;;;;;18.02;7.97;;;4.90;99.90;;;;;;5009567;28;20054;-73
2022/03/18 02:11:30;;;;;;;15.50;7.68;;;5.00;99.90;;;;;;5008465;28;20529;-72
2022/03/18 02:13:59;;;;;;;18.05;8.10;;;4.90;99.90;;;;;;5008186;28;20134;-72
2022/03/18 02:16:24;;;;;;;18.30;8.10;;;4.90;99.90;;;;;;5006531;28;20038;-72
2022/03/18 02:18:50;;;;;;;16.73;7.47;;;4.90;99.90;;;;;;5011265;28;20041;-72
2022/03/18 02:21:16;;;;;;;19.60;7.63;;;4.90;99.90;;;;;;5010772;28;20041;-72
2022/03/18 02:23:43;;;;;;;15.57;7.55;;;5.00;99.90;;;;;;5012420;28;20137;-72
2022/03/18 02:26:13;;;;;;;19.70;7.72;;;5.00;99.90;;;;;;5014461;28;20054;-72
2022/03/18 02:28:39;;;;;;;16.25;7.93;;;5.00;99.90;;;;;;5009993;28;20049;-72
2022/03/18 02:31:05;;;;;;;14.93;7.53;;;5.00;99.90;;;;;;5012435;28;20543;-73
2022/03/18 02:33:30;;;;;;;15.15;7.63;;;5.00;99.90;;;;;;5010578;28;20103;-72
2022/03/18 02:35:56;;;;;;;19.77;8.48;;;4.90;99.90;;;;;;5011403;28;20050;-72
2022/03/18 02:38:21;;;;;;;22.88;8.38;;;4.90;99.90;;;;;;5011068;28;20049;-72
2022/03/18 02:40:47;;;;;;;18.42;7.95;;;4.90;99.90;;;;;;5012104;28;20475;-72
2022/03/18 02:43:12;;;;;;;18.55;7.85;;;4.90;99.90;;;;;;5013414;28;20049;-72
2022/03/18 02:45:38;;;;;;;17.75;8.30;;;4.80;99.90;;;;;;5011860;28;20046;-72
2022/03/18 02:48:04;;;;;;;20.17;8.00;;;4.80;99.90;;;;;;5011261;28;20395;-73
2022/03/18 02:50:30;;;;;;;19.23;8.23;;;4.70;99.90;;;;;;5009939;28;20050;-72
2022/03/18 02:52:55;;;;;;;20.58;8.57;;;4.80;99.90;;;;;;5011844;28;20052;-72
2022/03/18 02:55:21;;;;;;;19.75;7.60;;;4.80;99.90;;;;;;5002925;28;20506;-72
2022/03/18 02:57:47;;;;;;;16.95;7.97;;;4.80;99.90;;;;;;5001218;28;20418;-72
2022/03/18 03:00:13;;;;;;;17.65;8.07;;;4.70;99.90;;;;;;5012174;28;20401;-73
2022/03/18 03:02:39;;;;;;;15.20;7.07;;;4.80;99.90;;;;;;5012563;28;20092;-73
2022/03/18 03:08:00;;;;;;;14.65;7.85;;;4.80;99.90;;;;;;5011507;28;20382;-72
2022/03/18 03:10:38;;;;;;;21.15;7.50;;;4.80;99.90;;;;;;4991477;28;20049;-72
2022/03/18 03:13:10;;;;;;;17.55;7.90;;;4.80;99.90;;;;;;5010666;28;20042;-73
2022/03/18 03:15:36;;;;;;;19.10;7.78;;;4.80;99.90;;;;;;5010971;28;20069;-73
2022/03/18 03:18:02;;;;;;;16.98;7.68;;;4.80;99.90;;;;;;5009472;28;20125;-73
2022/03/18 03:20:27;;;;;;;18.25;7.88;;;4.70;99.90;;;;;;5011634;28;20172;-73
2022/03/18 03:22:53;;;;;;;17.10;7.88;;;4.80;99.90;;;;;;5010733;28;20038;-73
2022/03/18 03:25:19;;;;;;;18.77;8.57;;;4.80;99.90;;;;;;5009123;28;20046;-73
2022/03/18 03:27:44;;;;;;;16.10;7.72;;;4.70;99.90;;;;;;5010792;28;20490;-73
2022/03/18 03:30:11;;;;;;;17.10;7.40;;;4.70;99.90;;;;;;4998333;28;20046;-73
2022/03/18 03:32:37;;;;;;;16.40;7.60;;;4.70;99.90;;;;;;5008742;28;20108;-73
2022/03/18 03:35:04;;;;;;;19.48;8.40;;;4.70;99.90;;;;;;5010590;28;20038;-72
2022/03/18 03:37:30;;;;;;;17.75;8.45;;;4.70;99.90;;;;;;5010712;28;20501;-72
2022/03/18 03:39:56;;;;;;;15.27;7.53;;;4.70;99.90;;;;;;5010274;28;20045;-73
2022/03/18 03:42:21;;;;;;;20.20;7.57;;;4.70;99.90;;;;;;5010933;28;20111;-72
2022/03/18 03:44:47;;;;;;;17.70;7.45;;;4.70;99.90;;;;;;5010393;28;20452;-73
2022/03/18 03:47:14;;;;;;;22.85;8.10;;;4.70;99.90;;;;;;5010711;28;20084;-73
2022/03/18 03:49:39;;;;;;;14.75;6.85;;;4.50;99.90;;;;;;5008915;28;20133;-73
2022/03/18 03:52:08;;;;;;;16.13;7.78;;;4.70;99.90;;;;;;5010493;28;20129;-73
2022/03/18 03:54:34;;;;;;;15.95;7.90;;;4.80;99.90;;;;;;5010163;28;20434;-73
2022/03/18 03:57:00;;;;;;;16.73;8.85;;;4.80;99.90;;;;;;5010787;28;20100;-73
2022/03/18 03:59:26;;;;;;;14.82;8.27;;;4.80;99.90;;;;;;5009783;28;20482;-72
2022/03/18 04:01:51;;;;;;;25.80;8.10;;;4.80;99.90;;;;;;5008352;28;20121;-73
2022/03/18 04:04:17;;;;;;;14.60;7.57;;;4.80;99.90;;;;;;5008417;28;20079;-73
2022/03/18 04:06:43;;;;;;;19.30;7.78;;;4.90;99.90;;;;;;5009301;28;20452;-73
2022/03/18 04:09:09;;;;;;;15.05;7.97;;;4.90;99.90;;;;;;5009834;28;20046;-73
2022/03/18 04:11:34;;;;;;;14.30;7.32;;;5.00;99.90;;;;;;5009925;28;20034;-73
2022/03/18 04:14:00;;;;;;;12.73;7.80;;;5.10;99.90;;;;;;5009883;28;20125;-73
2022/03/18 04:16:25;;;;;;;15.43;7.72;;;6.70;99.90;;;;;;5009943;28;20057;-72
2022/03/18 04:18:51;;;;;;;17.92;7.97;;;5.20;99.90;;;;;;5007653;28;20129;-73
2022/03/18 04:21:17;;;;;;;19.33;7.75;;;5.30;99.90;;;;;;5009364;28;20049;-72
2022/03/18 04:23:42;;;;;;;17.13;8.55;;;5.30;99.90;;;;;;5009892;28;20048;-73
2022/03/18 04:26:08;;;;;;;15.15;7.93;;;5.40;99.90;;;;;;5010210;28;20054;-72
2022/03/18 04:28:34;;;;;;;13.55;7.85;;;5.40;99.90;;;;;;5006090;28;20392;-73
2022/03/18 04:30:59;;;;;;;14.05;7.40;;;5.40;99.90;;;;;;4990881;28;20047;-73
2022/03/18 04:33:25;;;;;;;15.27;8.07;;;5.50;99.90;;;;;;5003848;28;20046;-73
2022/03/18 04:35:51;;;;;;;15.18;8.30;;;5.60;99.90;;;;;;5004759;28;20490;-73
2022/03/18 04:38:17;;;;;;;20.27;7.30;;;5.60;99.90;;;;;;5009575;28;20045;-73
2022/03/18 04:40:43;;;;;;;14.48;8.25;;;5.60;99.90;;;;;;5010290;28;20050;-73
2022/03/18 04:43:09;;;;;;;17.83;7.88;;;5.70;99.90;;;;;;5009242;28;20068;-73
2022/03/18 04:45:35;;;;;;;15.15;8.38;;;5.70;99.90;;;;;;5009216;28;20129;-73
2022/03/18 04:48:01;;;;;;;16.05;8.18;;;5.70;99.90;;;;;;5007213;28;20037;-73
2022/03/18 04:50:30;;;;;;;12.57;7.70;;;5.70;99.90;;;;;;5009453;28;20137;-72
2022/03/18 04:52:56;;;;;;;17.73;8.55;;;5.70;99.90;;;;;;5009522;28;20085;-73
2022/03/18 04:55:22;;;;;;;18.98;9.25;;;5.70;99.90;;;;;;5009294;28;20363;-72
2022/03/18 04:57:48;;;;;;;15.18;8.18;;;7.10;99.90;;;;;;5007881;28;20053;-72
2022/03/18 05:00:14;;;;;;;16.75;8.27;;;5.70;99.90;;;;;;5009489;28;20188;-72
2022/03/18 05:02:40;;;;;;;19.75;9.48;;;5.60;99.90;;;;;;5008111;28;20084;-72
2022/03/18 05:05:10;;;;;;;16.50;8.50;;;5.50;99.90;;;;;;5008658;28;20070;-72
2022/03/18 05:07:39;;;;;;;15.32;8.90;;;5.50;99.90;;;;;;5007903;28;20183;-72
2022/03/18 05:10:06;;;;;;;16.02;8.85;;;5.40;99.90;;;;;;5008919;28;20347;-73
2022/03/18 05:12:32;;;;;;;19.48;9.18;;;5.30;99.90;;;;;;5007892;28;20089;-72
2022/03/18 05:14:58;;;;;;;13.50;8.43;;;5.30;99.90;;;;;;4991580;28;20042;-73
2022/03/18 05:17:24;;;;;;;15.75;9.05;;;5.30;99.90;;;;;;5008263;28;20118;-72
2022/03/18 05:19:50;;;;;;;17.25;9.65;;;5.30;99.90;;;;;;5006703;28;20124;-72
2022/03/18 05:22:15;;;;;;;20.25;8.73;;;5.30;99.90;;;;;;5005769;28;20054;-72
2022/03/18 05:24:41;;;;;;;18.33;8.82;;;5.30;99.90;;;;;;4982996;28;20084;-73
2022/03/18 05:27:07;;;;;;;16.48;9.30;;;5.20;99.90;;;;;;5009126;28;20049;-73
2022/03/18 05:29:32;;;;;;;17.02;8.85;;;5.30;99.90;;;;;;5008503;28;20038;-73
2022/03/18 05:31:59;;;;;;;17.52;9.70;;;5.20;99.90;;;;;;5007836;28;20084;-73
2022/03/18 05:34:25;;;;;;;16.00;9.25;;;5.10;99.90;;;;;;5007514;28;20044;-73
2022/03/18 05:36:51;;;;;;;14.45;9.52;;;5.10;99.90;;;;;;5007422;28;20049;-73
2022/03/18 05:39:17;;;;;;;19.42;9.82;;;5.10;99.90;;;;;;4991031;28;20129;-73
2022/03/18 05:41:43;;;;;;;16.42;9.32;;;5.10;99.90;;;;;;5008621;28;20049;-72
2022/03/18 05:44:10;;;;;;;22.63;10.23;;;5.10;99.90;;;;;;5007510;28;20399;-73
2022/03/18 05:46:35;;;;;;;18.80;9.25;;;5.10;99.90;;;;;;5007680;28;20076;-73
2022/03/18 05:49:01;;;;;;;17.27;10.02;;;5.10;99.90;;;;;;5009426;28;20467;-73
2022/03/18 05:51:27;;;;;;;15.82;10.18;;;5.10;99.90;;;;;;5009291;28;20134;-73
2022/03/18 05:53:53;;;;;;;16.10;10.07;;;6.40;99.90;;;;;;5011669;28;20490;-73
2022/03/18 05:59:06;;;;;;;17.90;10.85;;;5.10;99.90;;;;;;5011973;28;21032;-72
2022/03/18 06:01:35;;;;;;;21.10;9.93;;;5.10;99.90;;;;;;5011840;28;20101;-73
2022/03/18 06:04:01;;;;;;;17.50;9.98;;;5.10;99.90;;;;;;5010629;28;20137;-73
2022/03/18 06:06:27;;;;;;;20.58;10.38;;;5.10;99.90;;;;;;5011983;28;20030;-73
2022/03/18 06:11:48;;;;;;;22.65;10.70;;;5.10;99.90;;;;;;5010057;28;20382;-72
2022/03/18 06:14:15;;;;;;;16.92;11.15;;;5.20;99.90;;;;;;5011987;28;20049;-74
2022/03/18 06:16:41;;;;;;;16.58;10.75;;;5.20;99.90;;;;;;5010194;28;20498;-75
2022/03/18 06:19:07;;;;;;;16.30;10.40;;;5.20;99.90;;;;;;5011399;28;20176;-75
2022/03/18 06:21:32;;;;;;;19.90;10.60;;;5.20;99.90;;;;;;5009990;28;20046;-75
2022/03/18 06:23:58;;;;;;;22.77;11.13;;;5.30;99.90;;;;;;5012227;28;20501;-74
2022/03/18 06:26:24;;;;;;;16.63;10.48;;;5.20;99.90;;;;;;5012289;28;20386;-75
2022/03/18 06:28:50;;;;;;;14.35;10.18;;;5.30;99.90;;;;;;5011592;28;20493;-75
2022/03/18 06:31:16;;;;;;;18.45;10.30;;;5.30;99.90;;;;;;5011395;28;20045;-76
2022/03/18 06:33:44;;;;;;;15.77;10.25;;;5.40;99.90;;;;;;5010729;28;20391;-74
2022/03/18 06:36:13;;;;;;;17.25;10.48;;;6.20;99.90;;;;;;5010892;28;20060;-76
2022/03/18 06:38:39;;;;;;;20.52;9.93;;;5.40;99.90;;;;;;5012166;28;20448;-76
2022/03/18 06:41:05;;;;;;;15.80;10.40;;;5.50;99.90;;;;;;5009653;28;20049;-76
2022/03/18 06:43:31;;;;;;;19.25;10.90;;;5.60;99.90;;;;;;5011462;28;20479;-76
2022/03/18 06:45:57;;;;;;;19.83;10.50;;;5.60;99.90;;;;;;4993231;28;20499;-76
2022/03/18 06:48:22;;;;;;;18.52;10.68;;;5.70;99.90;;;;;;5007209;28;20041;-75
2022/03/18 06:50:49;;;;;;;15.68;10.27;;;5.80;99.90;;;;;;5011218;28;20455;-76
2022/03/18 06:53:15;;;;;;;20.30;10.82;;;5.90;99.90;;;;;;5009628;28;20046;-75
2022/03/18 06:55:40;;;;;;;19.83;10.18;;;6.10;99.90;;;;;;5010682;28;20156;-76
2022/03/18 06:58:06;;;;;;;16.13;11.00;;;6.50;99.90;;;;;;5010591;28;20041;-75
2022/03/18 07:00:32;;;;;;;19.98;10.98;;;7.80;99.90;;;;;;5011024;28;20132;-75
2022/03/18 07:02:58;;;;;;;17.33;9.52;;;10.10;99.90;;;;;;5008854;28;20053;-75
2022/03/18 07:05:23;;;;;;;14.90;8.88;;;10.40;99.90;;;;;;5010169;28;20038;-76
2022/03/18 07:07:49;;;;;;;16.42;9.10;;;12.70;99.90;;;;;;5011327;28;20509;-76
2022/03/18 07:10:15;;;;;;;19.55;8.70;;;14.00;99.90;;;;;;5010938;28;20447;-76
2022/03/18 07:12:42;;;;;;;15.63;8.55;;;15.70;99.90;;;;;;5010222;28;20038;-76
2022/03/18 07:15:08;;;;;;;14.32;7.70;;;16.20;99.90;;;;;;5010854;28;20994;-76
2022/03/18 07:20:18;;;;;;;16.52;7.93;;;19.10;99.90;;;;;;5007621;28;20074;-76
2022/03/18 07:22:44;;;;;;;12.73;7.50;;;18.60;99.90;;;;;;5006406;28;20410;-76
2022/03/18 07:25:10;;;;;;;14.25;7.40;;;18.70;99.90;;;;;;5010625;28;20061;-76
2022/03/18 07:27:36;;;;;;;15.00;7.75;;;18.40;99.90;;;;;;5010754;28;20474;-76
2022/03/18 07:30:04;;;;;;;12.95;7.60;;;17.90;99.90;;;;;;5009042;28;20115;-76
2022/03/18 07:32:30;;;;;;;15.55;7.78;;;17.90;99.90;;;;;;4992268;28;20058;-76
2022/03/18 07:34:55;;;;;;;14.30;8.02;;;17.60;99.90;;;;;;5009377;28;20490;-76
2022/03/18 07:37:21;;;;;;;17.75;7.50;;;17.40;99.90;;;;;;5008430;28;20355;-75
2022/03/18 07:39:47;;;;;;;10.32;6.70;;;17.80;99.90;;;;;;5010772;28;20084;-76
2022/03/18 07:42:13;;;;;;;12.38;7.50;;;18.50;99.90;;;;;;5010325;28;20427;-77
2022/03/18 07:44:38;;;;;;;15.98;7.97;;;19.70;99.00;;;;;;5009038;28;20038;-77
2022/03/18 07:47:04;;;;;;;16.55;8.07;;;21.00;97.80;;;;;;5008917;28;20128;-77
2022/03/18 07:49:30;;;;;;;15.60;7.93;;;22.00;96.10;;;;;;5007954;28;20034;-77
2022/03/18 07:51:56;;;;;;;16.38;6.90;;;23.20;94.90;;;;;;5009792;28;20436;-76
2022/03/18 07:54:22;;;;;;;13.88;7.13;;;23.80;93.70;;;;;;5010082;28;20095;-76
2022/03/18 07:56:50;;;;;;;15.52;7.10;;;24.40;91.90;;;;;;5010189;28;20245;-77
2022/03/18 07:59:16;;;;;;;18.10;6.80;;;23.40;90.90;;;;;;5008824;28;20046;-77
2022/03/18 08:01:41;;;;;;;15.50;7.35;;;22.40;92.20;;;;;;5009530;28;20050;-76
2022/03/18 08:04:09;;;;;;;18.13;7.15;;;20.00;93.80;;;;;;5009702;28;20478;-76
2022/03/18 08:06:35;;;;;;;16.45;7.43;;;19.10;97.70;;;;;;5007184;28;20074;-77
2022/03/18 08:09:00;;;;;;;16.52;7.20;;;17.10;99.90;;;;;;5010199;28;20143;-76
2022/03/18 08:11:26;;;;;;;18.52;7.22;;;16.20;99.90;;;;;;5008406;28;20293;-76
2022/03/18 08:13:52;;;;;;;19.52;7.35;;;15.30;99.90;;;;;;5007204;28;20550;-77
2022/03/18 08:16:18;;;;;;;16.63;7.25;;;15.70;99.90;;;;;;5006852;28;20125;-76
2022/03/18 08:18:43;;;;;;;19.38;7.80;;;14.10;99.90;;;;;;5009222;28;20033;-77
2022/03/18 08:21:09;;;;;;;17.50;7.97;;;14.50;99.90;;;;;;5007735;28;20034;-76
2022/03/18 08:23:35;;;;;;;17.55;7.65;;;13.30;99.90;;;;;;5009852;28;20049;-76
2022/03/18 08:26:01;;;;;;;16.65;7.63;;;13.20;99.90;;;;;;5010619;28;20124;-76
2022/03/18 08:28:27;;;;;;;22.88;8.45;;;13.50;99.90;;;;;;5012251;28;20034;-76
2022/03/18 08:30:53;;;;;;;21.52;7.88;;;13.10;99.90;;;;;;5010398;28;20128;-76
2022/03/18 08:33:19;;;;;;;19.85;8.32;;;14.70;99.90;;;;;;5005788;28;20069;-75
2022/03/18 08:35:45;;;;;;;19.77;7.40;;;16.90;99.90;;;;;;5009418;28;20100;-76
2022/03/18 08:38:11;;;;;;;18.25;7.20;;;17.00;99.90;;;;;;5011340;28;20065;-77
2022/03/18 08:40:37;;;;;;;20.13;7.47;;;15.80;99.90;;;;;;5010568;28;20092;-76
2022/03/18 08:43:06;;;;;;;18.23;7.75;;;15.50;99.90;;;;;;5008314;28;20042;-76
2022/03/18 08:45:32;;;;;;;18.08;7.57;;;15.30;99.90;;;;;;5009451;28;20375;-76
2022/03/18 08:47:57;;;;;;;19.35;6.70;;;15.20;99.90;;;;;;5008355;28;20099;-76
2022/03/18 08:50:24;;;;;;;15.80;6.88;;;15.10;99.90;;;;;;5009486;28;20457;-76
2022/03/18 08:52:53;;;;;;;21.05;6.78;;;15.20;99.90;;;;;;4991359;28;20358;-76
2022/03/18 08:55:20;;;;;;;13.77;6.93;;;16.60;99.90;;;;;;4990698;28;20034;-75
2022/03/18 08:57:46;;;;;;;17.73;6.88;;;19.60;99.90;;;;;;5007951;28;20048;-76
2022/03/18 09:00:17;;;;;;;18.33;7.03;;;22.30;99.60;;;;;;5004055;28;20073;-75
2022/03/18 09:02:44;;;;;;;16.95;6.50;;;23.90;96.00;;;;;;4995288;28;20044;-75
2022/03/18 09:05:12;;;;;;;14.18;6.47;;;25.80;93.30;;;;;;4997823;28;20458;-76
2022/03/18 09:07:38;;;;;;;13.40;5.97;;;27.20;88.80;;;;;;4998352;28;20160;-75
2022/03/18 09:10:05;;;;;;;18.67;5.60;;;28.40;80.90;;;;;;4995265;28;20125;-76
2022/03/18 09:12:31;;;;;;;13.32;5.55;;;29.50;77.80;;;;;;5008807;28;20456;-76
2022/03/18 09:14:58;;;;;;;16.90;6.00;;;30.40;70.60;;;;;;5011096;28;20383;-76
2022/03/18 09:17:24;;;;;;;15.88;5.80;;;30.90;65.20;;;;;;5009760;28;20065;-75
2022/03/18 09:19:49;;;;;;;14.82;5.30;;;31.50;66.40;;;;;;5010341;28;20054;-77
2022/03/18 09:22:16;;;;;;;14.57;6.18;;;32.30;64.00;;;;;;5006265;28;20091;-77
2022/03/18 09:24:43;;;;;;;16.13;5.45;;;32.90;60.00;;;;;;5006943;28;20054;-76
2022/03/18 09:27:10;;;;;;;14.65;5.63;;;33.60;59.00;;;;;;5007297;28;20064;-77
2022/03/18 09:29:36;;;;;;;14.32;5.72;;;34.00;58.10;;;;;;5006607;28;20457;-77
2022/03/18 09:32:06;;;;;;;15.57;5.18;;;34.70;54.20;;;;;;5010025;28;20537;-77
2022/03/18 09:34:31;;;;;;;15.20;5.30;;;35.20;53.60;;;;;;5010277;28;20057;-77
2022/03/18 09:36:58;;;;;;;12.25;4.93;;;35.60;52.00;;;;;;5006751;28;20498;-77
2022/03/18 09:39:26;;;;;;;12.20;4.95;;;36.00;50.80;;;;;;5008810;28;20060;-77
2022/03/18 09:41:53;;;;;;;14.70;4.97;;;36.10;49.60;;;;;;5008068;28;20183;-77
2022/03/18 09:44:19;;;;;;;12.77;5.05;;;35.50;48.90;;;;;;5000474;28;20129;-77
2022/03/18 09:46:51;;;;;;;14.00;4.68;;;36.60;49.10;;;;;;4987268;28;20475;-76
2022/03/18 09:49:19;;;;;;;14.43;4.75;;;36.60;48.90;;;;;;4986698;28;20061;-77
2022/03/18 09:51:48;;;;;;;14.07;4.70;;;36.70;48.80;;;;;;4988497;28;20126;-77
2022/03/18 09:54:15;;;;;;;13.00;4.80;;;37.20;47.90;;;;;;4988554;28;20072;-77
2022/03/18 09:56:46;;;;;;;14.30;5.00;;;37.70;46.90;;;;;;5004043;28;20398;-77
2022/03/18 09:59:13;;;;;;;16.50;4.85;;;38.10;46.40;;;;;;4987657;28;20442;-77
2022/03/18 10:01:39;;;;;;;15.60;4.60;;;38.30;45.70;;;;;;5005615;28;20341;-78
2022/03/18 10:04:11;;;;;;;12.50;4.80;;;38.60;44.80;;;;;;5007423;28;20191;-77
2022/03/18 10:06:38;;;;;;;11.07;4.13;;;38.50;45.10;;;;;;5007773;28;20045;-76
2022/03/18 10:09:05;;;;;;;13.10;4.70;;;39.10;44.70;;;;;;5007756;28;20057;-77
2022/03/18 10:11:34;;;;;;;14.65;4.80;;;39.30;44.10;;;;;;5006016;28;20048;-77
2022/03/18 10:14:05;;;;;;;11.52;4.00;;;39.70;43.30;;;;;;5007321;28;20134;-71
2022/03/18 10:16:54;;;;;;;12.05;4.60;;;40.00;43.50;;;;;;5007853;28;20042;-69
2022/03/18 10:19:21;;;;;;;10.95;4.13;;;40.10;43.00;;;;;;5010687;28;20061;-80
2022/03/18 10:21:59;;;;;;;11.95;4.18;;;40.20;42.60;;;;;;5016427;28;20030;-78
2022/03/18 10:24:27;;;;;;;14.38;4.30;;;40.50;42.40;;;;;;4988766;28;20050;-77
2022/03/18 10:27:14;;;;;;;12.75;4.45;;;40.70;42.00;;;;;;5008762;28;20041;-78
2022/03/18 10:29:48;;;;;;;13.00;4.57;;;41.00;41.10;;;;;;5007611;28;20443;-78
2022/03/18 10:32:16;;;;;;;14.67;4.23;;;41.30;41.30;;;;;;5009117;28;20112;-79
2022/03/18 10:37:40;;;;;;;12.50;4.38;;;41.60;41.10;;;;;;5009473;28;20061;-79
2022/03/18 10:40:07;;;;;;;14.23;4.60;;;41.80;40.80;;;;;;5010695;28;20434;-81
2022/03/18 10:42:33;;;;;;;12.88;4.18;;;42.20;40.00;;;;;;5005066;28;20095;-77
2022/03/18 10:45:03;;;;;;;12.52;4.68;;;42.40;40.20;;;;;;5012006;28;20426;-77
2022/03/18 10:47:36;;;;;;;11.95;4.20;;;42.60;39.60;;;;;;5010425;28;20050;-68
2022/03/18 10:50:13;;;;;;;12.57;4.15;;;42.60;39.30;;;;;;5009120;28;20104;-68
2022/03/18 10:53:03;;;;;;;10.82;4.00;;;42.70;38.90;;;;;;5011637;28;20045;-68
2022/03/18 10:55:43;;;;;;;10.02;3.88;;;42.30;39.60;;;;;;5009149;28;20375;-68
2022/03/18 10:58:15;;;;;;;11.90;4.03;;;42.30;39.10;;;;;;5011424;28;20092;-70
2022/03/18 11:00:50;;;;;;;10.13;3.50;;;42.10;38.90;;;;;;5009831;28;20073;-70
2022/03/18 11:03:16;;;;;;;9.68;3.70;;;42.20;39.00;;;;;;5009445;28;20380;-69
2022/03/18 11:05:47;;;;;;;11.50;3.40;;;42.90;38.50;;;;;;5011064;28;20108;-70
2022/03/18 11:08:24;;;;;;;10.73;3.60;;;43.40;38.10;;;;;;5014030;28;20046;-69
2022/03/18 11:11:10;;;;;;;10.55;3.40;;;43.30;37.90;;;;;;5010202;28;20144;-70
2022/03/18 11:13:48;;;;;;;10.13;3.45;;;43.90;37.70;;;;;;5006332;28;20057;-67
2022/03/18 11:16:20;;;;;;;11.65;3.70;;;44.40;37.20;;;;;;5006416;28;20089;-67
2022/03/18 11:18:47;;;;;;;11.00;3.78;;;44.30;37.70;;;;;;4973624;28;20138;-67
2022/03/18 11:21:14;;;;;;;13.35;3.78;;;44.70;36.80;;;;;;5005168;28;20053;-67
2022/03/18 11:23:42;;;;;;;10.55;3.60;;;44.10;36.90;;;;;;5007062;28;20057;-67
2022/03/18 11:26:10;;;;;;;11.95;4.07;;;43.90;36.60;;;;;;5006758;28;20046;-66
2022/03/18 11:28:36;;;;;;;14.85;4.00;;;43.60;36.70;;;;;;5007640;28;20140;-66
2022/03/18 11:31:07;;;;;;;12.13;3.83;;;43.10;36.20;;;;;;5006431;28;20096;-67
2022/03/18 11:33:35;;;;;;;10.50;4.03;;;42.60;36.80;;;;;;5005556;28;20061;-66
2022/03/18 11:36:00;;;;;;;11.25;3.80;;;42.70;37.30;;;;;;5006208;28;20057;-67
2022/03/18 11:38:46;;;;;;;11.80;3.65;;;42.40;36.90;;;;;;5007017;28;20045;-67
2022/03/18 11:41:12;;;;;;;11.13;3.35;;;42.60;37.50;;;;;;5007354;28;20069;-67
2022/03/18 11:43:43;;;;;;;13.63;3.80;;;41.10;36.50;;;;;;5005723;28;20467;-67
2022/03/18 11:46:21;;;;;;;12.13;3.90;;;40.30;37.20;;;;;;5008576;28;20402;-67
2022/03/18 11:48:49;;;;;;;15.13;4.30;;;39.80;37.40;;;;;;5010862;28;20065;-66
2022/03/18 11:51:31;;;;;;;12.45;4.03;;;39.30;38.00;;;;;;5005941;28;20053;-66
2022/03/18 11:54:05;;;;;;;13.85;3.70;;;39.90;38.10;;;;;;5006581;28;20042;-67
2022/03/18 11:56:41;;;;;;;11.90;3.42;;;40.30;37.20;;;;;;5008145;28;20084;-66
2022/03/18 11:59:28;;;;;;;11.68;3.72;;;40.00;37.30;;;;;;5011290;28;20085;-71
2022/03/18 12:01:57;;;;;;;12.15;4.05;;;39.70;36.90;;;;;;5008257;28;20068;-68
2022/03/18 12:04:42;;;;;;;9.95;3.92;;;37.60;37.40;;;;;;5006838;28;20081;-69
2022/03/18 12:07:25;;;;;;;14.32;3.53;;;37.10;38.60;;;;;;5009198;28;20077;-69
2022/03/18 12:10:00;;;;;;;13.23;3.67;;;37.70;38.50;;;;;;5010217;28;20135;-69
2022/03/18 12:12:38;;;;;;;12.88;3.78;;;37.90;38.40;;;;;;5009150;28;20116;-70
2022/03/18 12:15:09;;;;;;;11.85;3.90;;;36.50;38.10;;;;;;5010385;28;20077;-69
2022/03/18 12:17:42;;;;;;;11.80;3.95;;;35.00;39.00;;;;;;5009673;28;20048;-70
2022/03/18 12:20:10;;;;;;;12.68;4.32;;;34.30;40.50;;;;;;5008156;28;20406;-70
2022/03/18 12:22:41;;;;;;;11.75;3.70;;;34.90;40.70;;;;;;5008292;28;20044;-71
2022/03/18 12:25:08;;;;;;;14.80;4.10;;;34.80;40.80;;;;;;5003644;28;20435;-70
2022/03/18 12:27:39;;;;;;;14.85;4.05;;;33.80;40.40;;;;;;5009763;28;20049;-70
2022/03/18 12:30:14;;;;;;;13.15;4.20;;;32.70;41.10;;;;;;4991883;28;20045;-70
2022/03/18 12:32:51;;;;;;;16.67;4.40;;;31.40;42.40;;;;;;5009165;28;20422;-69
2022/03/18 12:35:19;;;;;;;14.27;3.95;;;30.20;43.40;;;;;;4989246;28;20596;-70
2022/03/18 12:37:46;;;;;;;15.00;3.47;;;29.40;44.40;;;;;;4987883;28;20141;-69
2022/03/18 12:40:13;;;;;;;15.55;4.07;;;28.80;45.10;;;;;;4987854;28;20125;-69
2022/03/18 12:42:48;;;;;;;17.77;4.82;;;28.20;45.90;;;;;;5004032;28;20091;-69
2022/03/18 12:45:29;;;;;;;16.00;4.65;;;27.10;46.80;;;;;;5025103;28;20150;-68
2022/03/18 12:47:56;;;;;;;14.63;4.47;;;26.30;48.00;;;;;;5013421;28;20367;-69
2022/03/18 12:50:30;;;;;;;14.18;4.13;;;25.80;48.70;;;;;;5008700;28;20484;-68
2022/03/18 12:52:57;;;;;;;17.07;4.37;;;25.40;49.70;;;;;;5018043;28;20041;-68
2022/03/18 12:55:24;;;;;;;14.35;4.07;;;25.10;50.60;;;;;;5008755;28;20422;-68
2022/03/18 12:57:50;;;;;;;15.10;4.13;;;24.60;51.10;;;;;;5008078;28;20132;-69
2022/03/18 13:00:21;;;;;;;12.77;4.10;;;24.30;52.00;;;;;;5005160;28;20397;-67
2022/03/18 13:02:51;;;;;;;15.50;4.07;;;24.00;52.80;;;;;;5005497;28;20093;-67